UAII 272130Z 12003MPS CAVOK 11/M00 Q1017 NOSIG RMK QFE728/0970
QNH:(hPa/inHg/mmHg)1017 / 30.03 / 763
QFE:(hPa/inHg/mmHg)966 / 28.51 / 724
Temperature11
Dew Point-0
Visibility> 10000
WeatherCAVOK
Cloud Cover
Transition Altitude10000 ft.
Transition LevelFL110
SQUAWK